Flight Track Log - Related Links

Times and Time Zones

All times are in EDT time to prevent confusion due to time zone crossing. See the SKW5550 flight status page for this flight to view local times or setup timezone preferences in your user account.

Time Position Orientation Groundspeed Altitude Reporting Facility
EDT Latitude Longitude Course Direction KTS MPH feet Rate Location/Type
Sat 05:34:00 PM 39.8500 -104.7500 288° West 170 196 6,700  Level Denver TRACON
Sat 05:35:00 PM 39.8667 -104.8167 288° West 233 268 8,200 1,810 Climbing Denver TRACON
Sat 05:36:06 PM 39.9167 -104.9167 303° West 286 329 10,500 1,857 Climbing Denver TRACON
Sat 05:37:06 PM 39.9333 -105.0167 282° West 314 361 12,100 1,748 Climbing Denver TRACON
Sat 05:38:13 PM 39.9392 -105.1475 273° West 338 389 14,200 2,093 Climbing Denver Center
Sat 05:39:15 PM 39.9514 -105.2789 277° West 342 394 16,600 2,177 Climbing Denver Center
Sat 05:40:17 PM 39.9636 -105.4061 277° West 354 407 18,700 1,756 Climbing Denver Center
Sat 05:41:18 PM 39.9756 -105.5369 277° West 362 417 20,200 1,707 Climbing Denver Center
Sat 05:42:20 PM 39.9728 -105.6892 269° West 392 451 22,200 1,887 Climbing Denver Center
Sat 05:43:22 PM 39.9689 -105.8208 268° West 372 428 24,100 1,742 Climbing Denver Center
Sat 05:44:24 PM 39.9778 -105.9692 275° West 370 426 25,800 1,065 Climbing Denver Center
Sat 05:45:26 PM 39.9850 -106.1100 274° West 387 445 26,300 823 Climbing Denver Center
Sat 05:46:28 PM 39.9922 -106.2561 274° West 403 464 27,500 1,122 Climbing Denver Center
Sat 05:47:29 PM 40.0011 -106.4050 275° West 410 472 28,600 927 Climbing Denver Center
Sat 05:48:31 PM 40.0200 -106.5556 279° West 415 478 29,400 1,113 Climbing Denver Center
Sat 05:49:33 PM 40.0450 -106.7208 281° West 416 479 30,900 1,403 Climbing Denver Center
Sat 05:50:35 PM 40.0678 -106.8586 282° West 409 471 32,300 1,258 Climbing Denver Center
Sat 05:51:37 PM 40.0911 -107.0169 281° West 400 460 33,500 1,065 Climbing Denver Center
Sat 05:52:39 PM 40.1111 -107.1522 281° West 398 458 34,500 1,065 Climbing Denver Center
Sat 05:53:41 PM 40.1353 -107.3097 281° West 395 455 35,700 732 Climbing Denver Center
Sat 05:54:42 PM 40.1558 -107.4442 281° West 397 457 36,000 146 Climbing Denver Center
Sat 05:55:44 PM 40.1758 -107.5850 281° West 412 474 36,000  Level Denver Center
Sat 05:56:46 PM 40.2006 -107.7550 281° West 426 490 36,000  Level Denver Center
Sat 05:57:48 PM 40.2206 -107.8997 280° West 426 490 36,000  Level Denver Center
Sat 05:58:50 PM 40.2461 -108.0725 281° West 432 497 36,000  Level Denver Center
Sat 05:59:51 PM 40.2658 -108.2200 280° West 432 497 36,000 683 Level Denver Center
Sat 06:00:53 PM 40.2897 -108.3903 280° West 427 491 37,400 1,074 Climbing Denver Center
Sat 06:01:26 PM 40.3000 -108.4675 280° West 416 479 37,700 383 Climbing Salt Lake Center
Sat 06:02:27 PM 40.3197 -108.6053 281° West 406 467 38,000 198 Climbing Salt Lake Center
Sat 06:02:57 PM 40.3306 -108.6878 280° West 403 464 38,000  Level Denver Center
Sat 06:03:59 PM 40.3500 -108.8336 280° West 418 481 38,000  Level Denver Center
Sat 06:04:30 PM 40.3628 -108.9303 280° West 423 487 38,000  Level Salt Lake Center
Sat 06:05:31 PM 40.3822 -109.0753 280° West 424 488 38,000  Level Salt Lake Center
Sat 06:06:33 PM 40.4008 -109.2211 280° West 425 489 38,000  Level Salt Lake Center
Sat 06:07:34 PM 40.4228 -109.3914 280° West 425 489 38,000  Level Salt Lake Center
Sat 06:08:35 PM 40.4419 -109.5381 280° West 426 490 38,000  Level Salt Lake Center
Sat 06:09:36 PM 40.4633 -109.7078 279° West 424 488 38,000  Level Salt Lake Center
Sat 06:10:38 PM 40.4814 -109.8550 279° West 427 491 38,000  Level Salt Lake Center
Sat 06:11:39 PM 40.5006 -110.0014 280° West 426 490 38,000  Level Salt Lake Center
Sat 06:12:40 PM 40.5164 -110.1750 277° West 429 494 38,000  Level Salt Lake Center
Sat 06:13:41 PM 40.5314 -110.3214 278° West 424 488 38,000  Level Salt Lake Center
Sat 06:14:43 PM 40.5450 -110.4694 277° West 426 490 38,000  Level Salt Lake Center
Sat 06:15:44 PM 40.5611 -110.6436 277° West 427 491 38,000  Level Salt Lake Center
Sat 06:16:45 PM 40.5753 -110.7958 277° West 421 484 38,000  Level Salt Lake Center
Sat 06:17:46 PM 40.5900 -110.9497 277° West 422 486 38,000  Level Salt Lake Center
Sat 06:18:47 PM 40.6036 -111.1058 277° West 429 494 38,000  Level Salt Lake Center
Sat 06:19:49 PM 40.6167 -111.2608 276° West 427 491 38,000  Level Salt Lake Center
Sat 06:20:50 PM 40.6308 -111.4164 277° West 427 491 38,000  Level Salt Lake Center
Sat 06:21:51 PM 40.6433 -111.5714 276° West 425 489 38,000  Level Salt Lake Center
Sat 06:22:52 PM 40.6567 -111.7261 277° West 424 488 38,000  Level Salt Lake Center
Sat 06:23:53 PM 40.6697 -111.8822 276° West 425 489 38,000  Level Salt Lake Center
Sat 06:24:54 PM 40.6819 -112.0383 276° West 426 490 38,000  Level Salt Lake Center
Sat 06:25:56 PM 40.6944 -112.1944 276° West 429 494 38,000  Level Salt Lake Center
Sat 06:26:57 PM 40.7092 -112.3800 276° West 423 487 38,000  Level Salt Lake Center
Sat 06:27:58 PM 40.7214 -112.5342 276° West 423 487 38,000  Level Salt Lake Center
Sat 06:28:59 PM 40.7225 -112.6917 271° West 429 494 38,000  Level Salt Lake Center
Sat 06:30:00 PM 40.7242 -112.8486 271° West 430 495 38,000  Level Salt Lake Center
Sat 06:31:02 PM 40.7244 -113.0044 270° West 427 491 38,000  Level Salt Lake Center
Sat 06:32:03 PM 40.7256 -113.1631 271° West 432 497 38,000  Level Salt Lake Center
Sat 06:33:04 PM 40.7272 -113.3214 271° West 432 497 38,000  Level Salt Lake Center
Sat 06:34:05 PM 40.7253 -113.4792 269° West 432 497 38,000  Level Salt Lake Center
Sat 06:35:06 PM 40.7278 -113.6386 271° West 435 501 38,000  Level Salt Lake Center
Sat 06:36:07 PM 40.7289 -113.7989 271° West 437 503 38,000  Level Salt Lake Center
Sat 06:37:09 PM 40.7225 -113.9589 267° West 438 504 38,000  Level Salt Lake Center
Sat 06:38:10 PM 40.7158 -114.1503 267° West 437 503 38,000  Level Salt Lake Center
Sat 06:39:11 PM 40.7100 -114.3117 267° West 440 506 38,000  Level Salt Lake Center
Sat 06:40:12 PM 40.7047 -114.4722 268° West 440 506 38,000  Level Salt Lake Center
Sat 06:41:13 PM 40.6969 -114.6328 266° West 440 506 38,000  Level Salt Lake Center
Sat 06:42:14 PM 40.6889 -114.7939 266° West 443 510 38,000  Level Salt Lake Center
Sat 06:43:16 PM 40.6825 -114.9478 267° West 443 510 38,000  Level Salt Lake Center
Sat 06:44:17 PM 40.6728 -115.1281 266° West 443 510 38,000  Level Salt Lake Center
Sat 06:45:18 PM 40.6619 -115.2825 265° West 442 509 38,000  Level Salt Lake Center
Sat 06:46:19 PM 40.6536 -115.4639 267° West 445 512 38,000  Level Salt Lake Center
Sat 06:47:20 PM 40.6442 -115.6186 265° West 444 511 38,000  Level Salt Lake Center
Sat 06:48:21 PM 40.6364 -115.7714 266° West 441 507 38,000  Level Salt Lake Center
Sat 06:49:22 PM 40.6267 -115.9489 266° West 437 503 38,000  Level Salt Lake Center
Sat 06:50:23 PM 40.6197 -116.1072 267° West 446 513 38,000  Level Salt Lake Center
Sat 06:51:25 PM 40.6092 -116.2628 265° West 447 514 38,000  Level Salt Lake Center
Sat 06:52:26 PM 40.5992 -116.4425 266° West 443 510 38,000  Level Salt Lake Center
Sat 06:53:27 PM 40.5897 -116.5972 265° West 445 512 38,000  Level Salt Lake Center
Sat 06:54:28 PM 40.5789 -116.7769 266° West 446 513 38,000  Level Salt Lake Center
Sat 06:55:29 PM 40.5628 -116.9294 262° West 451 519 38,000  Level Salt Lake Center
Sat 06:56:30 PM 40.5069 -117.0969 246° West 457 526 38,000  Level Salt Lake Center
Sat 06:57:31 PM 40.4542 -117.2381 244° Southwest 456 525 38,000  Level Salt Lake Center
Sat 06:58:33 PM 40.4011 -117.3806 244° Southwest 455 524 38,000  Level Salt Lake Center
Sat 06:59:34 PM 40.3397 -117.5481 244° Southwest 455 524 38,000  Level Salt Lake Center
Sat 07:00:35 PM 40.2853 -117.6917 244° Southwest 459 528 38,000  Level Salt Lake Center
Sat 07:01:36 PM 40.2231 -117.8583 244° Southwest 458 527 38,000  Level Salt Lake Center
Sat 07:02:13 PM 40.1964 -117.9311 244° Southwest 459 528 38,000  Level Oakland Center
Sat 07:03:14 PM 40.1406 -118.0822 244° Southwest 462 532 38,000  Level Oakland Center
Sat 07:04:15 PM 40.0842 -118.2306 244° Southwest 459 528 38,000  Level Oakland Center
Sat 07:05:16 PM 40.0272 -118.3800 244° Southwest 462 532 38,000  Level Oakland Center
Sat 07:06:17 PM 39.9597 -118.5592 244° Southwest 460 529 38,000  Level Oakland Center
Sat 07:07:18 PM 39.9019 -118.7075 243° Southwest 461 531 38,000 -295 Level Oakland Center
Sat 07:08:19 PM 39.8442 -118.8558 243° Southwest 464 534 37,400 -492 Descending Oakland Center
Sat 07:09:20 PM 39.7853 -119.0083 243° Southwest 474 545 37,000 -443 Descending Oakland Center
Sat 07:10:21 PM 39.7242 -119.1628 243° Southwest 483 556 36,500 -492 Descending Oakland Center
Sat 07:11:22 PM 39.6631 -119.3172 243° Southwest 484 557 36,000 -492 Descending Oakland Center
Sat 07:12:23 PM 39.6025 -119.4744 243° Southwest 487 560 35,500 -492 Descending Oakland Center
Sat 07:13:24 PM 39.5417 -119.6267 243° Southwest 482 555 35,000 -492 Descending Oakland Center
Sat 07:14:25 PM 39.4664 -119.7683 235° Southwest 480 552 34,500 -1,672 Descending Oakland Center
Sat 07:15:26 PM 39.3717 -119.9344 234° Southwest 480 552 31,600 -2,951 Descending Oakland Center
Sat 07:16:27 PM 39.2919 -120.0731 233° Southwest 483 556 28,500 -2,803 Descending Oakland Center
Sat 07:17:28 PM 39.2267 -120.1886 234° Southwest 469 540 25,900 -3,049 Descending Oakland Center
Sat 07:18:29 PM 39.1592 -120.3614 243° Southwest 450 518 22,300 -3,246 Descending Oakland Center
Sat 07:19:30 PM 39.1214 -120.5103 252° West 440 506 19,300 -2,902 Descending Oakland Center
Sat 07:20:31 PM 39.0828 -120.6528 251° West 429 494 16,400 -2,459 Descending Oakland Center
Sat 07:21:32 PM 39.0494 -120.7850 252° West 402 463 14,300 -2,508 Descending Oakland Center
Sat 07:22:33 PM 39.0144 -120.9147 251° West 388 447 11,300 -2,115 Descending Oakland Center
Sat 07:23:34 PM 38.9833 -121.0389 252° West 372 428 10,000 -1,180 Descending Oakland Center
Sat 07:24:35 PM 38.9572 -121.1369 251° West 308 354 8,900 -1,328 Descending Oakland Center
Sat 07:25:36 PM 38.9322 -121.2319 251° West 289 333 7,300 -1,254 Descending Oakland Center
Sat 07:26:49 PM 38.9000 -121.3500 251° West 273 314 6,100 -567 Descending Northern Cal TRACON
Sat 07:27:43 PM 38.8833 -121.4500 258° West 284 327 6,100 -53 Level Northern Cal TRACON
Sat 07:28:43 PM 38.8833 -121.5333 270° West 281 323 6,000 -600 Descending Northern Cal TRACON
Sat 07:29:43 PM 38.8500 -121.6333 247° West 277 319 4,900 -1,000 Descending Northern Cal TRACON
Sat 07:30:43 PM 38.8167 -121.7000 237° Southwest 269 310 4,000 -400 Descending Northern Cal TRACON
Sat 07:31:43 PM 38.7500 -121.7000 180° South 261 300 4,100  Climbing Northern Cal TRACON
Sat 07:32:43 PM 38.6714 -121.6931 176° South 264 304 4,000 -295 Descending Oakland Center
Sat 07:33:45 PM 38.6053 -121.6903 178° South 246 283 3,500 -780 Descending Oakland Center
Sat 07:34:46 PM 38.5750 -121.6464 131° Southeast 223 257 2,400 -915 Descending Oakland Center
Sat 07:35:43 PM 38.6000 -121.5833 63° Northeast 185 213 1,700 -821 Descending Northern Cal TRACON
Sat 07:36:43 PM 38.6500 -121.5833 360° North 148 170 800 -900 Descending Northern Cal TRACON

Login

Don't have an account? Register now (free) for customized features, flight alerts, and more!